默认 日期 大小 文件数 浏览量 最新下载 xml
hit-磁力链接相关资源由用户搜索指令自动获取,结果来源于网络,本站不存储任何资料,亦不承担任何责任,请于24小时内删除,搜索到10504个磁力,显示前4000条数据,用时5ms。
    {"074. Tyga - Juicy.mp3": 9844090, "004. Alonzo - Binta.mp3": 8942705, "029. Nine - Deal With.mp3": 6802401, "073. J Stash - Juggin.mp3": 8256898, "128. Onyx - Whut Whut.mp3": 7098106, "055. Blakface - Ghetto.mp3": 9669602, "080. Dj Shadow - Mambo.mp3": ...
创建时间: 2018-11-19 16:43:08 大小:1.12 GB 文件数量:130 热度:12 最近下载:2025-10-11 11:28:02
    ... - Overseer - Nervous.flac": 46514730, "Overseer - Hit The Tarmac.log": 2815, "Overseer ... - Hit The Tarmac.m3u": 303, "04 - ...
创建时间: 2018-11-19 18:17:01 大小:154.5 MB 文件数量:7 热度:12 最近下载:2023-04-17 17:50:07
    {"The.Best.Hit.E01.170602.720p-NEXT.mp4": 886854241, "The.Best.Hit.E01.170602.720p-NEXT.srt": 44988}
创建时间: 2018-11-19 20:27:13 大小:845.81 MB 文件数量:2 热度:12 最近下载:2025-01-14 12:45:01
    {"Hit.The.Floor.S02E12.720p.HDTV.x264-KILLERS.mkv": 1076165486, "hit.the.floor.s02e12.720p.hdtv.x264-killers.nfo": 10975}
创建时间: 2018-11-19 20:32:01 大小:1 GB 文件数量:2 热度:8 最近下载:2023-04-17 18:20:03
    {"079 Lupe Fiasco - Slr 2.mp3": 9599904, "047 V-System - Time Warp.mp3": 25583584, "071 Sinior Cliff - Dreams.mp3": 25372532, "056 Andrew Lang - Hive Mind.mp3": 19906671, "083 Froidz - You (Deep Mix).mp3": 13630762, "039 Sito & Cheka - Live it Up.mp3": ...
创建时间: 2018-11-19 20:41:11 大小:1.08 GB 文件数量:85 热度:8 最近下载:2023-04-17 18:30:02
    ... Supersound).m3u": 1196}}}, "Maxi Hit Sensation 1989": {"poster.jpg ... 26224475}, "Various - MAXI HIT SENSATION - DOPPEL DOSIS MAXI ... ": 20365669, "Various - MAXI HIT SENSATION - DOPPEL DOSIS MAXI POWER ... "Various - Maxi Power Maxi Hit Sensation [cd2]": {"01. Funky ...
创建时间: 2018-11-19 21:19:44 大小:1.37 GB 文件数量:75 热度:9 最近下载:2023-04-17 18:40:16
    {"Sample.avi": 54739556, "Hit by Lightning 2014 WEBrip XviD AC3 MiLLENiUM.avi": 1329217536}
创建时间: 2018-11-19 21:23:47 大小:1.29 GB 文件数量:2 热度:10 最近下载:2024-07-03 01:09:02
    {"Gordon Link Serie Hit 2 - Phantasmagoria (Dardo 1992-11) [c2c aquila newECOS].cbr": 32272527, "Gordon Link Serie Hit 1 - La villa dei suicidi (Dardo 1992-07) [c2c aquila newECOS].cbr": 34592826}
创建时间: 2018-11-19 21:33:40 大小:63.77 MB 文件数量:2 热度:11 最近下载:2025-02-23 03:52:03
    {"acoustic60s.jpg": 53743, "Acoustic 70s CD1": {"Cover.jpg": 6100, "06 Dolly Parton - Jolene.mp3": 4011526, "03 Cat Stevens - Wild World.mp3": 4782214, "10 Steve Miller - The Joker.mp3": 6299289, "05 Don McLean - American Pie.mp3": 5749909, "16 Kansas - ...
创建时间: 2018-11-19 21:49:24 大小:300.04 MB 文件数量:64 热度:9 最近下载:2023-04-17 19:00:16
    {"John Pizzarelli 1985 Hit That Jive, Jack! (flac).cue": ... 991, "John Pizzarelli 1985 Hit That Jive, Jack! side 1 ... .flac": 656562749, "John Pizzarelli 1985 Hit That Jive, Jack! side 2 ... .flac": 587162007, "John Pizzarelli 1985 Hit That Jive, Jack! LP face ...
创建时间: 2018-11-19 22:12:58 大小:1.16 GB 文件数量:4 热度:14 最近下载:2025-08-04 06:12:07
    {"CD1": {"06 - Bruno Mars - Finesse.mp3": 7665205, "01 - David Guetta - Flames.mp3": 7824176, "07 - Logic - Broken People.mp3": 8508404, "10 - Amir - Les rues de ma peine.mp3": 8997557, "02 - Charlie Puth - Done For Me (feat. Kehlani).mp3": 7246239, "03 - ...
创建时间: 2018-11-19 23:22:18 大小:77.54 MB 文件数量:10 热度:8 最近下载:2023-04-17 19:40:02
    {"Various - Maxi Hit-Sensation - 80er, 90er & Mehr CD ... Version).mp3": 11382461}, "Various - Maxi Hit-Sensation - 80er, 90er & Mehr CD ... Version).mp3": 16508725}, "Various - Maxi Hit-Sensation - 80er, 90er & Mehr CD ...
创建时间: 2018-11-19 23:23:59 大小:534.75 MB 文件数量:39 热度:9 最近下载:2025-03-22 00:48:02
    {"The.Hit.Sound.Rock.Stage.WAV.MiDi- ... 131 bpm.wav": 3878280}, "The.Hit.Sound.Rock.Stage.2.WAV ...
创建时间: 2018-11-19 23:28:26 大小:439.45 MB 文件数量:203 热度:17 最近下载:2025-10-13 23:09:02
    {"nfo": 373, "Hit and Run (2009).avi": 346449564, "Torrent_downloaded_from_Demonoid.com.txt": 47}
创建时间: 2018-11-19 23:57:33 大小:330.4 MB 文件数量:3 热度:7 最近下载:2023-04-17 20:00:16
    ... .jpg": 95570, "musigroup.png": 79994, "Hit Mania Estate 2015.m3u": 9885 ... , "CD1 - Hit Mania Estate 2015": {"09. Serebro ... ' cosi importante.mp3": 8533554}, "CD2 - Hit Mania Estate 2015 Dance Version ...
创建时间: 2018-11-20 00:23:27 大小:605.6 MB 文件数量:93 热度:8 最近下载:2024-06-22 05:10:02
    ... 'm Done.mp3": 7451693, "01 Hit Reset.mp3": 5906289, "06 Let ... .mp3": 7297074, "The Julie Ruin - Hit Reset (2016).jpg": 17586}
创建时间: 2018-11-20 00:23:38 大小:89.36 MB 文件数量:14 热度:8 最近下载:2023-04-17 20:30:03
    ... ": 7736832, "2pac - Makaveli 3 - Hit Em Up - 04 - Makaveli Records ... ": 2862170, "2pac - Makaveli 3 - Hit Em Up - 07 - Please Don ... ": 8639524, "2pac - Makaveli 3 - Hit Em Up - 12 - Untouchable (Drunken ... ": 8643906, "2pac - Makaveli 3 - Hit Em Up - 08 - Letter To ...
创建时间: 2018-11-20 01:58:19 大小:104.28 MB 文件数量:17 热度:5 最近下载:2023-04-17 21:10:07
    ... .mp3": 10152707}, "CD1 - Hit Mania Special Edition 2015": {"hit mania.nfo": 3065 ... di Sordi.mp3": 9870572}, "CD2 - Hit Mania Special Edition 2015 Club ...
创建时间: 2018-11-20 02:45:35 大小:627.49 MB 文件数量:84 热度:6 最近下载:2023-04-17 21:40:06
    {"Cover.jpg": 73178, "Tracklist.txt": 4244, "033_Modjo - Lady.mp3": 5243623, "085_Sonique - Sky.mp3": 6479367, "043_A1 - Take On Me.mp3": 5215534, "081_Madonna - Music.mp3": 5479177, "031_ATB - The Summer.mp3": 6299968, "069_Texas - In Demand.mp3": 5765284 ...
创建时间: 2018-11-20 02:54:56 大小:689.68 MB 文件数量:102 热度:5 最近下载:2023-04-17 21:40:06
    ... Quicksilver - Free.mp3": 17778515, "022. Hit`n`hide - Partyman.mp3": 8170723 ...
创建时间: 2018-11-20 03:32:57 大小:1.35 GB 文件数量:150 热度:11 最近下载:2023-04-17 22:10:09